sensor_id;sensor_type;location;lat;lon;timestamp;P1;durP1;ratioP1;P2;durP2;ratioP2
11588;SDS011;5850;51.360;12.362;2023-08-01T00:00:06;7.40;;;5.07;;
11588;SDS011;5850;51.360;12.362;2023-08-01T00:02:35;7.63;;;4.50;;
11588;SDS011;5850;51.360;12.362;2023-08-01T00:05:04;9.83;;;4.30;;
11588;SDS011;5850;51.360;12.362;2023-08-01T00:07:32;8.33;;;4.40;;
11588;SDS011;5850;51.360;12.362;2023-08-01T00:10:03;6.70;;;3.93;;
11588;SDS011;5850;51.360;12.362;2023-08-01T00:12:32;6.07;;;4.10;;
11588;SDS011;5850;51.360;12.362;2023-08-01T00:15:01;6.87;;;3.70;;
11588;SDS011;5850;51.360;12.362;2023-08-01T00:17:30;4.93;;;3.70;;
11588;SDS011;5850;51.360;12.362;2023-08-01T00:19:58;4.60;;;4.00;;
11588;SDS011;5850;51.360;12.362;2023-08-01T00:22:26;5.07;;;4.03;;
11588;SDS011;5850;51.360;12.362;2023-08-01T00:24:55;8.77;;;4.50;;
11588;SDS011;5850;51.360;12.362;2023-08-01T00:27:23;8.50;;;4.17;;
11588;SDS011;5850;51.360;12.362;2023-08-01T00:29:51;6.00;;;3.80;;
11588;SDS011;5850;51.360;12.362;2023-08-01T00:32:20;4.40;;;3.83;;
11588;SDS011;5850;51.360;12.362;2023-08-01T00:34:49;5.43;;;3.83;;
11588;SDS011;5850;51.360;12.362;2023-08-01T00:37:18;7.40;;;3.90;;
11588;SDS011;5850;51.360;12.362;2023-08-01T00:39:48;6.30;;;3.80;;
11588;SDS011;5850;51.360;12.362;2023-08-01T00:42:16;5.90;;;3.60;;
11588;SDS011;5850;51.360;12.362;2023-08-01T00:44:44;6.03;;;3.67;;
11588;SDS011;5850;51.360;12.362;2023-08-01T00:47:14;5.33;;;3.90;;
11588;SDS011;5850;51.360;12.362;2023-08-01T00:49:43;4.77;;;4.00;;
11588;SDS011;5850;51.360;12.362;2023-08-01T00:52:11;4.40;;;3.77;;
11588;SDS011;5850;51.360;12.362;2023-08-01T00:54:39;4.83;;;4.13;;
11588;SDS011;5850;51.360;12.362;2023-08-01T00:57:08;4.90;;;3.57;;
11588;SDS011;5850;51.360;12.362;2023-08-01T00:59:36;6.83;;;3.70;;
11588;SDS011;5850;51.360;12.362;2023-08-01T01:02:04;6.33;;;3.70;;
11588;SDS011;5850;51.360;12.362;2023-08-01T01:04:33;5.83;;;3.40;;
11588;SDS011;5850;51.360;12.362;2023-08-01T01:07:05;4.37;;;3.40;;
11588;SDS011;5850;51.360;12.362;2023-08-01T01:09:34;5.03;;;3.83;;
11588;SDS011;5850;51.360;12.362;2023-08-01T01:14:53;4.07;;;3.00;;
11588;SDS011;5850;51.360;12.362;2023-08-01T01:17:21;5.93;;;3.40;;
11588;SDS011;5850;51.360;12.362;2023-08-01T01:19:50;4.27;;;3.43;;
11588;SDS011;5850;51.360;12.362;2023-08-01T01:22:18;6.33;;;3.30;;
11588;SDS011;5850;51.360;12.362;2023-08-01T01:24:46;4.17;;;3.13;;
11588;SDS011;5850;51.360;12.362;2023-08-01T01:27:16;4.17;;;3.17;;
11588;SDS011;5850;51.360;12.362;2023-08-01T01:29:45;4.03;;;3.20;;
11588;SDS011;5850;51.360;12.362;2023-08-01T01:32:15;3.97;;;3.13;;
11588;SDS011;5850;51.360;12.362;2023-08-01T01:34:44;4.87;;;3.30;;
11588;SDS011;5850;51.360;12.362;2023-08-01T01:37:12;5.93;;;3.50;;
11588;SDS011;5850;51.360;12.362;2023-08-01T01:39:40;6.03;;;3.77;;
11588;SDS011;5850;51.360;12.362;2023-08-01T01:42:08;4.77;;;3.20;;
11588;SDS011;5850;51.360;12.362;2023-08-01T01:44:39;3.87;;;3.27;;
11588;SDS011;5850;51.360;12.362;2023-08-01T01:47:07;5.23;;;3.30;;
11588;SDS011;5850;51.360;12.362;2023-08-01T01:49:35;6.13;;;3.37;;
11588;SDS011;5850;51.360;12.362;2023-08-01T01:52:04;5.83;;;3.03;;
11588;SDS011;5850;51.360;12.362;2023-08-01T01:54:32;5.97;;;3.77;;
11588;SDS011;5850;51.360;12.362;2023-08-01T01:57:00;7.37;;;3.50;;
11588;SDS011;5850;51.360;12.362;2023-08-01T01:59:29;5.87;;;3.40;;
11588;SDS011;5850;51.360;12.362;2023-08-01T02:01:57;4.60;;;3.27;;
11588;SDS011;5850;51.360;12.362;2023-08-01T02:04:26;5.03;;;3.70;;
11588;SDS011;5850;51.360;12.362;2023-08-01T02:06:54;5.27;;;3.70;;
11588;SDS011;5850;51.360;12.362;2023-08-01T02:09:22;3.93;;;3.37;;
11588;SDS011;5850;51.360;12.362;2023-08-01T02:11:51;7.40;;;3.53;;
11588;SDS011;5850;51.360;12.362;2023-08-01T02:14:19;5.17;;;4.10;;
11588;SDS011;5850;51.360;12.362;2023-08-01T02:16:47;4.60;;;3.70;;
11588;SDS011;5850;51.360;12.362;2023-08-01T02:19:16;6.37;;;4.00;;
11588;SDS011;5850;51.360;12.362;2023-08-01T02:21:44;4.57;;;4.00;;
11588;SDS011;5850;51.360;12.362;2023-08-01T02:24:12;5.43;;;4.17;;
11588;SDS011;5850;51.360;12.362;2023-08-01T02:26:41;6.03;;;4.33;;
11588;SDS011;5850;51.360;12.362;2023-08-01T02:29:09;8.57;;;4.10;;
11588;SDS011;5850;51.360;12.362;2023-08-01T02:31:37;6.57;;;4.33;;
11588;SDS011;5850;51.360;12.362;2023-08-01T02:34:06;6.70;;;3.87;;
11588;SDS011;5850;51.360;12.362;2023-08-01T02:36:34;5.27;;;3.67;;
11588;SDS011;5850;51.360;12.362;2023-08-01T02:39:02;4.97;;;3.90;;
11588;SDS011;5850;51.360;12.362;2023-08-01T02:41:31;6.93;;;4.07;;
11588;SDS011;5850;51.360;12.362;2023-08-01T02:43:59;5.20;;;4.13;;
11588;SDS011;5850;51.360;12.362;2023-08-01T02:46:28;5.33;;;4.00;;
11588;SDS011;5850;51.360;12.362;2023-08-01T02:48:57;6.17;;;3.90;;
11588;SDS011;5850;51.360;12.362;2023-08-01T02:51:25;7.23;;;3.73;;
11588;SDS011;5850;51.360;12.362;2023-08-01T02:53:58;5.13;;;4.07;;
11588;SDS011;5850;51.360;12.362;2023-08-01T02:56:26;5.60;;;3.27;;
11588;SDS011;5850;51.360;12.362;2023-08-01T02:58:57;5.23;;;3.93;;
11588;SDS011;5850;51.360;12.362;2023-08-01T03:01:25;4.23;;;3.50;;
11588;SDS011;5850;51.360;12.362;2023-08-01T03:03:53;5.50;;;3.77;;
11588;SDS011;5850;51.360;12.362;2023-08-01T03:06:22;5.30;;;3.97;;
11588;SDS011;5850;51.360;12.362;2023-08-01T03:08:50;5.00;;;3.33;;
11588;SDS011;5850;51.360;12.362;2023-08-01T03:11:18;6.10;;;3.90;;
11588;SDS011;5850;51.360;12.362;2023-08-01T03:13:47;5.53;;;3.70;;
11588;SDS011;5850;51.360;12.362;2023-08-01T03:16:15;4.60;;;3.83;;
11588;SDS011;5850;51.360;12.362;2023-08-01T03:18:44;6.20;;;3.50;;
11588;SDS011;5850;51.360;12.362;2023-08-01T03:21:12;5.50;;;3.50;;
11588;SDS011;5850;51.360;12.362;2023-08-01T03:26:17;3.80;;;3.40;;
11588;SDS011;5850;51.360;12.362;2023-08-01T03:28:46;5.37;;;3.43;;
11588;SDS011;5850;51.360;12.362;2023-08-01T03:31:14;7.43;;;3.70;;
11588;SDS011;5850;51.360;12.362;2023-08-01T03:33:42;5.70;;;3.60;;
11588;SDS011;5850;51.360;12.362;2023-08-01T03:36:11;5.93;;;3.40;;
11588;SDS011;5850;51.360;12.362;2023-08-01T03:38:40;3.53;;;2.73;;
11588;SDS011;5850;51.360;12.362;2023-08-01T03:41:08;5.83;;;3.40;;
11588;SDS011;5850;51.360;12.362;2023-08-01T03:43:36;3.77;;;3.07;;
11588;SDS011;5850;51.360;12.362;2023-08-01T03:46:04;4.73;;;3.07;;
11588;SDS011;5850;51.360;12.362;2023-08-01T03:48:34;3.37;;;3.07;;
11588;SDS011;5850;51.360;12.362;2023-08-01T03:51:02;5.77;;;2.93;;
11588;SDS011;5850;51.360;12.362;2023-08-01T03:53:30;5.10;;;3.17;;
11588;SDS011;5850;51.360;12.362;2023-08-01T03:55:59;3.17;;;2.87;;
11588;SDS011;5850;51.360;12.362;2023-08-01T03:58:28;4.97;;;3.33;;
11588;SDS011;5850;51.360;12.362;2023-08-01T04:00:56;5.07;;;3.23;;
11588;SDS011;5850;51.360;12.362;2023-08-01T04:03:24;5.50;;;3.37;;
11588;SDS011;5850;51.360;12.362;2023-08-01T04:05:53;4.17;;;3.30;;
11588;SDS011;5850;51.360;12.362;2023-08-01T04:08:23;4.93;;;3.07;;
11588;SDS011;5850;51.360;12.362;2023-08-01T04:10:51;6.37;;;3.30;;
11588;SDS011;5850;51.360;12.362;2023-08-01T04:13:19;4.00;;;2.70;;
11588;SDS011;5850;51.360;12.362;2023-08-01T04:15:48;3.90;;;3.10;;
11588;SDS011;5850;51.360;12.362;2023-08-01T04:18:16;4.63;;;3.57;;
11588;SDS011;5850;51.360;12.362;2023-08-01T04:20:44;5.97;;;3.63;;
11588;SDS011;5850;51.360;12.362;2023-08-01T04:23:13;5.90;;;2.97;;
11588;SDS011;5850;51.360;12.362;2023-08-01T04:25:41;5.33;;;2.97;;
11588;SDS011;5850;51.360;12.362;2023-08-01T04:28:10;3.00;;;2.70;;
11588;SDS011;5850;51.360;12.362;2023-08-01T04:30:38;6.33;;;3.27;;
11588;SDS011;5850;51.360;12.362;2023-08-01T04:33:06;3.43;;;3.10;;
11588;SDS011;5850;51.360;12.362;2023-08-01T04:35:35;3.80;;;2.70;;
11588;SDS011;5850;51.360;12.362;2023-08-01T04:38:03;6.10;;;2.73;;
11588;SDS011;5850;51.360;12.362;2023-08-01T04:40:31;3.90;;;2.93;;
11588;SDS011;5850;51.360;12.362;2023-08-01T04:43:01;3.23;;;2.90;;
11588;SDS011;5850;51.360;12.362;2023-08-01T04:45:29;4.67;;;3.00;;
11588;SDS011;5850;51.360;12.362;2023-08-01T04:47:57;3.33;;;2.80;;
11588;SDS011;5850;51.360;12.362;2023-08-01T04:50:26;5.23;;;3.30;;
11588;SDS011;5850;51.360;12.362;2023-08-01T04:52:54;4.60;;;2.80;;
11588;SDS011;5850;51.360;12.362;2023-08-01T04:55:22;4.17;;;2.83;;
11588;SDS011;5850;51.360;12.362;2023-08-01T04:57:51;3.10;;;2.80;;
11588;SDS011;5850;51.360;12.362;2023-08-01T05:00:19;3.87;;;2.83;;
11588;SDS011;5850;51.360;12.362;2023-08-01T05:02:48;4.37;;;2.47;;
11588;SDS011;5850;51.360;12.362;2023-08-01T05:05:16;3.53;;;2.50;;
11588;SDS011;5850;51.360;12.362;2023-08-01T05:07:45;2.60;;;2.40;;
11588;SDS011;5850;51.360;12.362;2023-08-01T05:10:13;3.47;;;2.60;;
11588;SDS011;5850;51.360;12.362;2023-08-01T05:12:43;4.97;;;2.73;;
11588;SDS011;5850;51.360;12.362;2023-08-01T05:15:11;2.53;;;2.23;;
11588;SDS011;5850;51.360;12.362;2023-08-01T05:17:39;2.50;;;2.30;;
11588;SDS011;5850;51.360;12.362;2023-08-01T05:20:07;2.67;;;2.43;;
11588;SDS011;5850;51.360;12.362;2023-08-01T05:22:36;2.57;;;2.37;;
11588;SDS011;5850;51.360;12.362;2023-08-01T05:25:04;3.57;;;2.90;;
11588;SDS011;5850;51.360;12.362;2023-08-01T05:27:32;3.20;;;2.70;;
11588;SDS011;5850;51.360;12.362;2023-08-01T05:30:01;2.90;;;2.47;;
11588;SDS011;5850;51.360;12.362;2023-08-01T05:32:29;3.60;;;2.43;;
11588;SDS011;5850;51.360;12.362;2023-08-01T05:34:57;3.57;;;2.40;;
11588;SDS011;5850;51.360;12.362;2023-08-01T05:37:26;2.80;;;2.40;;
11588;SDS011;5850;51.360;12.362;2023-08-01T05:39:54;3.73;;;2.20;;
11588;SDS011;5850;51.360;12.362;2023-08-01T05:42:22;2.47;;;2.20;;
11588;SDS011;5850;51.360;12.362;2023-08-01T05:44:50;3.53;;;2.00;;
11588;SDS011;5850;51.360;12.362;2023-08-01T05:47:19;2.70;;;2.40;;
11588;SDS011;5850;51.360;12.362;2023-08-01T05:49:49;2.57;;;2.10;;
11588;SDS011;5850;51.360;12.362;2023-08-01T05:52:17;3.10;;;2.27;;
11588;SDS011;5850;51.360;12.362;2023-08-01T05:54:45;4.00;;;2.40;;
11588;SDS011;5850;51.360;12.362;2023-08-01T05:57:13;3.23;;;2.43;;
11588;SDS011;5850;51.360;12.362;2023-08-01T05:59:41;3.93;;;2.30;;
11588;SDS011;5850;51.360;12.362;2023-08-01T06:02:10;3.27;;;2.33;;
11588;SDS011;5850;51.360;12.362;2023-08-01T06:04:38;2.70;;;1.93;;
11588;SDS011;5850;51.360;12.362;2023-08-01T06:07:06;2.30;;;1.83;;
11588;SDS011;5850;51.360;12.362;2023-08-01T06:09:35;3.50;;;2.03;;
11588;SDS011;5850;51.360;12.362;2023-08-01T06:12:03;2.27;;;2.00;;
11588;SDS011;5850;51.360;12.362;2023-08-01T06:14:31;3.47;;;2.27;;
11588;SDS011;5850;51.360;12.362;2023-08-01T06:17:00;2.60;;;2.07;;
11588;SDS011;5850;51.360;12.362;2023-08-01T06:19:28;2.27;;;1.80;;
11588;SDS011;5850;51.360;12.362;2023-08-01T06:21:56;2.83;;;1.80;;
11588;SDS011;5850;51.360;12.362;2023-08-01T06:24:26;1.73;;;1.47;;
11588;SDS011;5850;51.360;12.362;2023-08-01T06:26:54;4.03;;;1.80;;
11588;SDS011;5850;51.360;12.362;2023-08-01T06:29:23;3.60;;;1.90;;
11588;SDS011;5850;51.360;12.362;2023-08-01T06:31:51;4.80;;;1.90;;
11588;SDS011;5850;51.360;12.362;2023-08-01T06:34:20;1.50;;;1.40;;
11588;SDS011;5850;51.360;12.362;2023-08-01T06:36:48;2.23;;;1.60;;
11588;SDS011;5850;51.360;12.362;2023-08-01T06:39:16;2.63;;;1.83;;
11588;SDS011;5850;51.360;12.362;2023-08-01T06:41:44;1.60;;;1.50;;
11588;SDS011;5850;51.360;12.362;2023-08-01T06:44:13;2.70;;;1.80;;
11588;SDS011;5850;51.360;12.362;2023-08-01T06:46:41;1.40;;;1.30;;
11588;SDS011;5850;51.360;12.362;2023-08-01T06:49:09;1.27;;;1.17;;
11588;SDS011;5850;51.360;12.362;2023-08-01T06:51:38;2.03;;;0.93;;
11588;SDS011;5850;51.360;12.362;2023-08-01T06:54:07;1.10;;;1.00;;
11588;SDS011;5850;51.360;12.362;2023-08-01T06:56:36;2.50;;;1.10;;
11588;SDS011;5850;51.360;12.362;2023-08-01T06:59:04;1.87;;;1.27;;
11588;SDS011;5850;51.360;12.362;2023-08-01T07:01:33;2.70;;;1.20;;
11588;SDS011;5850;51.360;12.362;2023-08-01T07:04:01;0.90;;;0.90;;
11588;SDS011;5850;51.360;12.362;2023-08-01T07:06:30;1.57;;;1.20;;
11588;SDS011;5850;51.360;12.362;2023-08-01T07:08:58;2.80;;;1.10;;
11588;SDS011;5850;51.360;12.362;2023-08-01T07:11:26;1.00;;;1.00;;
11588;SDS011;5850;51.360;12.362;2023-08-01T07:13:54;2.17;;;1.50;;
11588;SDS011;5850;51.360;12.362;2023-08-01T07:16:23;2.13;;;1.37;;
11588;SDS011;5850;51.360;12.362;2023-08-01T07:18:51;1.63;;;1.00;;
11588;SDS011;5850;51.360;12.362;2023-08-01T07:21:19;1.30;;;1.20;;
11588;SDS011;5850;51.360;12.362;2023-08-01T07:23:48;1.37;;;1.20;;
11588;SDS011;5850;51.360;12.362;2023-08-01T07:26:17;1.83;;;0.80;;
11588;SDS011;5850;51.360;12.362;2023-08-01T07:28:45;1.23;;;1.00;;
11588;SDS011;5850;51.360;12.362;2023-08-01T07:31:13;1.40;;;0.97;;
11588;SDS011;5850;51.360;12.362;2023-08-01T07:33:42;1.17;;;1.10;;
11588;SDS011;5850;51.360;12.362;2023-08-01T07:36:10;2.90;;;1.10;;
11588;SDS011;5850;51.360;12.362;2023-08-01T07:38:38;1.07;;;0.90;;
11588;SDS011;5850;51.360;12.362;2023-08-01T07:41:06;1.37;;;1.13;;
11588;SDS011;5850;51.360;12.362;2023-08-01T07:43:35;1.17;;;1.07;;
11588;SDS011;5850;51.360;12.362;2023-08-01T07:46:03;1.03;;;0.90;;
11588;SDS011;5850;51.360;12.362;2023-08-01T07:48:31;1.00;;;0.73;;
11588;SDS011;5850;51.360;12.362;2023-08-01T07:51:00;1.00;;;0.83;;
11588;SDS011;5850;51.360;12.362;2023-08-01T07:53:29;0.90;;;0.80;;
11588;SDS011;5850;51.360;12.362;2023-08-01T07:55:57;0.80;;;0.80;;
11588;SDS011;5850;51.360;12.362;2023-08-01T07:58:28;3.63;;;0.90;;
11588;SDS011;5850;51.360;12.362;2023-08-01T08:00:57;2.83;;;1.27;;
11588;SDS011;5850;51.360;12.362;2023-08-01T08:03:34;0.97;;;0.90;;
11588;SDS011;5850;51.360;12.362;2023-08-01T08:06:03;0.80;;;0.80;;
11588;SDS011;5850;51.360;12.362;2023-08-01T08:08:31;1.57;;;0.97;;
11588;SDS011;5850;51.360;12.362;2023-08-01T08:11:00;0.70;;;0.70;;
11588;SDS011;5850;51.360;12.362;2023-08-01T08:13:28;2.37;;;1.30;;
11588;SDS011;5850;51.360;12.362;2023-08-01T08:15:57;1.13;;;0.90;;
11588;SDS011;5850;51.360;12.362;2023-08-01T08:18:25;1.30;;;1.03;;
11588;SDS011;5850;51.360;12.362;2023-08-01T08:20:55;1.43;;;1.00;;
11588;SDS011;5850;51.360;12.362;2023-08-01T08:23:23;1.27;;;1.10;;
11588;SDS011;5850;51.360;12.362;2023-08-01T08:25:51;1.90;;;1.00;;
11588;SDS011;5850;51.360;12.362;2023-08-01T08:28:30;2.53;;;1.00;;
11588;SDS011;5850;51.360;12.362;2023-08-01T08:31:00;1.17;;;1.00;;
11588;SDS011;5850;51.360;12.362;2023-08-01T08:33:29;1.47;;;1.17;;
11588;SDS011;5850;51.360;12.362;2023-08-01T08:35:58;0.93;;;0.63;;
11588;SDS011;5850;51.360;12.362;2023-08-01T08:38:26;2.70;;;1.07;;
11588;SDS011;5850;51.360;12.362;2023-08-01T08:41:05;0.77;;;0.77;;
11588;SDS011;5850;51.360;12.362;2023-08-01T08:43:43;1.40;;;1.20;;
11588;SDS011;5850;51.360;12.362;2023-08-01T08:46:15;2.10;;;1.30;;
11588;SDS011;5850;51.360;12.362;2023-08-01T08:48:44;1.27;;;1.00;;
11588;SDS011;5850;51.360;12.362;2023-08-01T08:51:12;1.10;;;0.80;;
11588;SDS011;5850;51.360;12.362;2023-08-01T08:53:41;2.03;;;1.07;;
11588;SDS011;5850;51.360;12.362;2023-08-01T08:56:12;1.27;;;1.17;;
11588;SDS011;5850;51.360;12.362;2023-08-01T08:58:41;1.03;;;0.87;;
11588;SDS011;5850;51.360;12.362;2023-08-01T09:01:10;2.97;;;1.20;;
11588;SDS011;5850;51.360;12.362;2023-08-01T09:03:38;1.60;;;0.83;;
11588;SDS011;5850;51.360;12.362;2023-08-01T09:06:16;1.17;;;0.90;;
11588;SDS011;5850;51.360;12.362;2023-08-01T09:08:51;1.00;;;0.90;;
11588;SDS011;5850;51.360;12.362;2023-08-01T09:11:39;0.83;;;0.80;;
11588;SDS011;5850;51.360;12.362;2023-08-01T09:14:17;1.20;;;1.10;;
11588;SDS011;5850;51.360;12.362;2023-08-01T09:16:46;2.50;;;0.90;;
11588;SDS011;5850;51.360;12.362;2023-08-01T09:19:18;1.53;;;1.00;;
11588;SDS011;5850;51.360;12.362;2023-08-01T09:21:48;1.27;;;1.10;;
11588;SDS011;5850;51.360;12.362;2023-08-01T09:24:17;1.83;;;1.10;;
11588;SDS011;5850;51.360;12.362;2023-08-01T09:26:48;1.03;;;0.93;;
11588;SDS011;5850;51.360;12.362;2023-08-01T09:29:17;1.53;;;1.00;;
11588;SDS011;5850;51.360;12.362;2023-08-01T09:31:45;1.20;;;1.07;;
11588;SDS011;5850;51.360;12.362;2023-08-01T09:34:25;1.10;;;1.00;;
11588;SDS011;5850;51.360;12.362;2023-08-01T09:36:58;2.10;;;1.47;;
11588;SDS011;5850;51.360;12.362;2023-08-01T09:39:36;2.77;;;1.10;;
11588;SDS011;5850;51.360;12.362;2023-08-01T09:42:40;2.07;;;1.60;;
11588;SDS011;5850;51.360;12.362;2023-08-01T09:45:31;1.70;;;0.93;;
11588;SDS011;5850;51.360;12.362;2023-08-01T09:48:00;1.20;;;1.10;;
11588;SDS011;5850;51.360;12.362;2023-08-01T09:50:28;1.27;;;1.17;;
11588;SDS011;5850;51.360;12.362;2023-08-01T09:53:06;1.30;;;1.20;;
11588;SDS011;5850;51.360;12.362;2023-08-01T09:55:35;2.60;;;1.43;;
11588;SDS011;5850;51.360;12.362;2023-08-01T09:58:33;2.50;;;1.50;;
11588;SDS011;5850;51.360;12.362;2023-08-01T10:01:01;1.10;;;1.00;;
11588;SDS011;5850;51.360;12.362;2023-08-01T10:03:32;1.33;;;1.03;;
11588;SDS011;5850;51.360;12.362;2023-08-01T10:06:00;1.90;;;0.80;;
11588;SDS011;5850;51.360;12.362;2023-08-01T10:08:29;2.17;;;1.30;;
11588;SDS011;5850;51.360;12.362;2023-08-01T10:11:00;1.10;;;1.00;;
11588;SDS011;5850;51.360;12.362;2023-08-01T10:13:32;1.70;;;1.20;;
11588;SDS011;5850;51.360;12.362;2023-08-01T10:16:00;1.30;;;0.90;;
11588;SDS011;5850;51.360;12.362;2023-08-01T10:18:29;0.90;;;0.90;;
11588;SDS011;5850;51.360;12.362;2023-08-01T10:20:57;0.97;;;0.80;;
11588;SDS011;5850;51.360;12.362;2023-08-01T10:23:26;1.33;;;1.20;;
11588;SDS011;5850;51.360;12.362;2023-08-01T10:25:55;0.97;;;0.80;;
11588;SDS011;5850;51.360;12.362;2023-08-01T10:28:33;0.83;;;0.83;;
11588;SDS011;5850;51.360;12.362;2023-08-01T10:31:07;0.80;;;0.80;;
11588;SDS011;5850;51.360;12.362;2023-08-01T10:33:42;2.60;;;2.17;;
11588;SDS011;5850;51.360;12.362;2023-08-01T10:36:15;1.70;;;1.33;;
11588;SDS011;5850;51.360;12.362;2023-08-01T10:38:46;1.10;;;1.00;;
11588;SDS011;5850;51.360;12.362;2023-08-01T10:49:19;2.67;;;1.00;;
11588;SDS011;5850;51.360;12.362;2023-08-01T10:52:01;0.80;;;0.80;;
11588;SDS011;5850;51.360;12.362;2023-08-01T10:54:30;1.47;;;1.37;;
11588;SDS011;5850;51.360;12.362;2023-08-01T10:57:00;1.10;;;1.00;;
11588;SDS011;5850;51.360;12.362;2023-08-01T10:59:28;1.10;;;1.00;;
11588;SDS011;5850;51.360;12.362;2023-08-01T11:01:57;1.87;;;1.10;;
11588;SDS011;5850;51.360;12.362;2023-08-01T11:04:27;3.90;;;1.07;;
11588;SDS011;5850;51.360;12.362;2023-08-01T11:06:56;1.10;;;0.90;;
11588;SDS011;5850;51.360;12.362;2023-08-01T11:09:25;3.57;;;2.33;;
11588;SDS011;5850;51.360;12.362;2023-08-01T11:11:57;3.20;;;2.63;;
11588;SDS011;5850;51.360;12.362;2023-08-01T11:14:27;2.70;;;1.87;;
11588;SDS011;5850;51.360;12.362;2023-08-01T11:16:56;3.20;;;1.90;;
11588;SDS011;5850;51.360;12.362;2023-08-01T11:19:29;4.30;;;2.17;;
11588;SDS011;5850;51.360;12.362;2023-08-01T11:21:57;2.10;;;1.90;;
11588;SDS011;5850;51.360;12.362;2023-08-01T11:24:35;3.60;;;2.13;;
11588;SDS011;5850;51.360;12.362;2023-08-01T11:27:03;2.40;;;2.13;;
11588;SDS011;5850;51.360;12.362;2023-08-01T11:29:37;2.30;;;2.10;;
11588;SDS011;5850;51.360;12.362;2023-08-01T11:32:06;3.17;;;2.13;;
11588;SDS011;5850;51.360;12.362;2023-08-01T11:34:41;1.80;;;1.70;;
11588;SDS011;5850;51.360;12.362;2023-08-01T11:37:13;2.70;;;1.90;;
11588;SDS011;5850;51.360;12.362;2023-08-01T11:39:45;2.00;;;1.87;;
11588;SDS011;5850;51.360;12.362;2023-08-01T11:42:17;2.97;;;2.40;;
11588;SDS011;5850;51.360;12.362;2023-08-01T11:44:45;2.40;;;2.13;;
11588;SDS011;5850;51.360;12.362;2023-08-01T11:47:15;2.17;;;1.90;;
11588;SDS011;5850;51.360;12.362;2023-08-01T11:49:48;2.87;;;2.67;;
11588;SDS011;5850;51.360;12.362;2023-08-01T11:52:27;3.07;;;2.30;;
11588;SDS011;5850;51.360;12.362;2023-08-01T11:54:59;4.57;;;2.83;;
11588;SDS011;5850;51.360;12.362;2023-08-01T11:57:27;2.73;;;2.33;;
11588;SDS011;5850;51.360;12.362;2023-08-01T11:59:56;5.00;;;2.30;;
11588;SDS011;5850;51.360;12.362;2023-08-01T12:02:25;2.57;;;2.27;;
11588;SDS011;5850;51.360;12.362;2023-08-01T12:04:56;2.30;;;2.10;;
11588;SDS011;5850;51.360;12.362;2023-08-01T12:07:25;2.50;;;2.30;;
11588;SDS011;5850;51.360;12.362;2023-08-01T12:12:27;2.60;;;2.37;;
11588;SDS011;5850;51.360;12.362;2023-08-01T12:14:56;5.07;;;3.07;;
11588;SDS011;5850;51.360;12.362;2023-08-01T12:17:39;3.40;;;2.90;;
11588;SDS011;5850;51.360;12.362;2023-08-01T12:20:07;4.27;;;2.80;;
11588;SDS011;5850;51.360;12.362;2023-08-01T12:22:35;3.00;;;2.70;;
11588;SDS011;5850;51.360;12.362;2023-08-01T12:25:04;3.50;;;3.20;;
11588;SDS011;5850;51.360;12.362;2023-08-01T12:27:32;4.97;;;2.90;;
11588;SDS011;5850;51.360;12.362;2023-08-01T12:30:01;2.70;;;2.50;;
11588;SDS011;5850;51.360;12.362;2023-08-01T12:32:29;3.63;;;2.83;;
11588;SDS011;5850;51.360;12.362;2023-08-01T12:34:57;2.90;;;2.30;;
11588;SDS011;5850;51.360;12.362;2023-08-01T12:37:26;2.97;;;2.60;;
11588;SDS011;5850;51.360;12.362;2023-08-01T12:39:54;3.87;;;2.90;;
11588;SDS011;5850;51.360;12.362;2023-08-01T12:42:28;3.17;;;2.50;;
11588;SDS011;5850;51.360;12.362;2023-08-01T12:44:56;5.40;;;3.10;;
11588;SDS011;5850;51.360;12.362;2023-08-01T12:47:24;5.00;;;2.70;;
11588;SDS011;5850;51.360;12.362;2023-08-01T12:49:53;3.60;;;3.17;;
11588;SDS011;5850;51.360;12.362;2023-08-01T12:52:22;4.10;;;3.00;;
11588;SDS011;5850;51.360;12.362;2023-08-01T12:54:51;3.50;;;3.00;;
11588;SDS011;5850;51.360;12.362;2023-08-01T12:57:19;3.23;;;2.90;;
11588;SDS011;5850;51.360;12.362;2023-08-01T12:59:48;3.30;;;3.00;;
11588;SDS011;5850;51.360;12.362;2023-08-01T13:02:16;4.00;;;3.37;;
11588;SDS011;5850;51.360;12.362;2023-08-01T13:04:45;2.93;;;2.70;;
11588;SDS011;5850;51.360;12.362;2023-08-01T13:07:13;3.93;;;3.13;;
11588;SDS011;5850;51.360;12.362;2023-08-01T13:09:41;3.27;;;2.83;;
11588;SDS011;5850;51.360;12.362;2023-08-01T13:12:09;3.53;;;3.00;;
11588;SDS011;5850;51.360;12.362;2023-08-01T13:14:38;3.20;;;2.90;;
11588;SDS011;5850;51.360;12.362;2023-08-01T13:17:06;2.87;;;2.60;;
11588;SDS011;5850;51.360;12.362;2023-08-01T13:19:34;3.40;;;3.07;;
11588;SDS011;5850;51.360;12.362;2023-08-01T13:22:02;3.00;;;2.70;;
11588;SDS011;5850;51.360;12.362;2023-08-01T13:24:31;3.73;;;3.40;;
11588;SDS011;5850;51.360;12.362;2023-08-01T13:26:59;4.13;;;3.23;;
11588;SDS011;5850;51.360;12.362;2023-08-01T13:29:28;4.80;;;3.70;;
11588;SDS011;5850;51.360;12.362;2023-08-01T13:31:56;4.53;;;3.37;;
11588;SDS011;5850;51.360;12.362;2023-08-01T13:34:24;3.80;;;3.40;;
11588;SDS011;5850;51.360;12.362;2023-08-01T13:36:53;6.13;;;3.40;;
11588;SDS011;5850;51.360;12.362;2023-08-01T13:39:21;5.63;;;4.20;;
11588;SDS011;5850;51.360;12.362;2023-08-01T13:41:50;4.40;;;3.63;;
11588;SDS011;5850;51.360;12.362;2023-08-01T13:44:18;4.47;;;3.63;;
11588;SDS011;5850;51.360;12.362;2023-08-01T13:46:46;4.40;;;3.80;;
11588;SDS011;5850;51.360;12.362;2023-08-01T13:49:15;5.10;;;3.50;;
11588;SDS011;5850;51.360;12.362;2023-08-01T13:51:43;4.53;;;4.13;;
11588;SDS011;5850;51.360;12.362;2023-08-01T13:54:11;5.40;;;4.43;;
11588;SDS011;5850;51.360;12.362;2023-08-01T13:56:39;4.13;;;3.73;;
11588;SDS011;5850;51.360;12.362;2023-08-01T13:59:08;4.20;;;3.80;;
11588;SDS011;5850;51.360;12.362;2023-08-01T14:01:36;5.47;;;4.50;;
11588;SDS011;5850;51.360;12.362;2023-08-01T14:04:05;8.57;;;4.53;;
11588;SDS011;5850;51.360;12.362;2023-08-01T14:06:33;6.43;;;4.37;;
11588;SDS011;5850;51.360;12.362;2023-08-01T14:09:02;5.37;;;4.03;;
11588;SDS011;5850;51.360;12.362;2023-08-01T14:11:30;4.87;;;4.40;;
11588;SDS011;5850;51.360;12.362;2023-08-01T14:13:58;7.23;;;4.60;;
11588;SDS011;5850;51.360;12.362;2023-08-01T14:16:27;5.83;;;5.23;;
11588;SDS011;5850;51.360;12.362;2023-08-01T14:18:56;4.93;;;4.43;;
11588;SDS011;5850;51.360;12.362;2023-08-01T14:21:25;5.73;;;4.33;;
11588;SDS011;5850;51.360;12.362;2023-08-01T14:23:55;7.33;;;4.53;;
11588;SDS011;5850;51.360;12.362;2023-08-01T14:26:24;5.13;;;4.30;;
11588;SDS011;5850;51.360;12.362;2023-08-01T14:28:52;6.10;;;4.13;;
11588;SDS011;5850;51.360;12.362;2023-08-01T14:31:20;4.70;;;4.20;;
11588;SDS011;5850;51.360;12.362;2023-08-01T14:33:48;4.77;;;4.30;;
11588;SDS011;5850;51.360;12.362;2023-08-01T14:36:17;4.47;;;3.90;;
11588;SDS011;5850;51.360;12.362;2023-08-01T14:38:45;5.10;;;3.87;;
11588;SDS011;5850;51.360;12.362;2023-08-01T14:41:23;6.50;;;5.17;;
11588;SDS011;5850;51.360;12.362;2023-08-01T14:44:11;6.30;;;4.17;;
11588;SDS011;5850;51.360;12.362;2023-08-01T14:46:40;4.13;;;3.73;;
11588;SDS011;5850;51.360;12.362;2023-08-01T14:49:08;4.87;;;3.70;;
11588;SDS011;5850;51.360;12.362;2023-08-01T14:51:38;4.87;;;3.40;;
11588;SDS011;5850;51.360;12.362;2023-08-01T14:54:06;5.73;;;4.20;;
11588;SDS011;5850;51.360;12.362;2023-08-01T14:56:36;4.20;;;3.20;;
11588;SDS011;5850;51.360;12.362;2023-08-01T14:59:05;5.30;;;3.63;;
11588;SDS011;5850;51.360;12.362;2023-08-01T15:01:33;5.13;;;3.37;;
11588;SDS011;5850;51.360;12.362;2023-08-01T15:04:02;3.60;;;2.77;;
11588;SDS011;5850;51.360;12.362;2023-08-01T15:06:30;3.87;;;3.20;;
11588;SDS011;5850;51.360;12.362;2023-08-01T15:08:59;3.97;;;2.90;;
11588;SDS011;5850;51.360;12.362;2023-08-01T15:11:27;3.40;;;3.10;;
11588;SDS011;5850;51.360;12.362;2023-08-01T15:13:56;4.77;;;2.40;;
11588;SDS011;5850;51.360;12.362;2023-08-01T15:16:24;2.87;;;2.37;;